Skip Navigation LinksHome page > Weather > Current weather Skip Navigation Links

Current Weather

New Tokyo International (Narita), Tokyo

For information only: do not use for flight planning or navigation.
Latest weather
Observation time Tuesday, June 22, 2021 9:00 AM JST
Local time Tuesday, June 22, 2021 9:43 AM JST
Flight conditions Low Instrument Meteorological Conditions
Winds
Wind direction Northeast (50°)
Winds variable from 10° to 90°
Wind speed 5 mph
Visibility 6.2 mi.
Sky condition
Ceiling 0 ft. broken clouds
Cloud layer broken clouds 0 ft.
Cloud layer few clouds 2,000 ft.
Cloud layer scattered clouds 2,500 ft.
Temperature 73°F
Dewpoint 66°F
Altimeter 29.80 in.Hg
Derived measurements
Relative humidity 78%
Density altitude 1517 ft.
METAR RJAA 220000Z 05004KT 010V090 9999 FEW020 SCT025 BKN/// 23/19 Q1009 BECMG 12006KT RMK 1CU020 3CU025 A2980

Settings

Location code

InnerDrive.Weather 4.0.6770.0 Release CLR 4.0.30319.42000
Copyright ©2018 Inner Drive Technology. All rights reserved. Portions Copyright ©1986-2018 David Braverman.

Find weather

Site navigation


Skip Navigation Links

Place info

Page info

PayPal - The safer, easier way to pay online!

Return home.

Copyright ©2021 Inner Drive Technology. Purveyors of fine, hand-crafted computer software. Page printed 2021-06-22T00:43:47 UTC.